METAR Data
IDs: Format: Raw Decoded Include TAF

Data at: 1718 UTC 20 Jan 2019

KRZL 201655Z AUTO 00000KT 10SM BKN050 M10/M19 A3029 RMK AO2